Overview Statistics Trail Chart Weather Telemetry Raw packets
 

This is the latest recevied weather packets stored in our database for station/object KO6LQK. If no packets are shown the sender has not sent any weather packets the latest 10 day(s).

<< 23 24 25 26 27 28 29 >>
Time Temp. Humidity Pressure Rain* Wind** Luminosity Snow
1788274696 21.11° C 22% 1022.4 hPa 0 mm - 104 W/m² -
1788274395 21.67° C 22% 1022.2 hPa 0 mm - 95 W/m² -
1788274091 20.56° C 23% 1022.2 hPa 0 mm - 90 W/m² -
1788273786 20° C 24% 1022 hPa 0 mm - 83 W/m² -
1788273482 19.44° C 25% 1022.3 hPa 0 mm - 78 W/m² -
1788273178 18.89° C 26% 1022 hPa 0 mm - 72 W/m² -
1788272874 18.33° C 30% 1021.9 hPa 0 mm - 67 W/m² -
1788272573 17.78° C 34% 1022 hPa 0 mm - 61 W/m² -
1788272268 17.78° C 34% 1022.2 hPa 0 mm - 56 W/m² -
1788271969 17.78° C 34% 1022 hPa 0 mm - 49 W/m² -
1788271668 17.78° C 33% 1022 hPa 0 mm - 44 W/m² -
1788271366 17.22° C 33% 1021.7 hPa 0 mm - 37 W/m² -
1788271062 17.22° C 31% 1021.8 hPa 0 mm - 33 W/m² -
1788270761 17.22° C 30% 1021.8 hPa 0 mm - 26 W/m² -
1788270457 16.67° C 32% 1021.9 hPa 0 mm - 22 W/m² -
1788270157 16.67° C 32% 1021.9 hPa 0 mm - 17 W/m² -
1788269857 16.11° C 33% 1021.7 hPa 0 mm - 13 W/m² -
1788269557 16.11° C 32% 1021.8 hPa 0 mm - 8 W/m² -
1788269255 16.11° C 32% 1021.5 hPa 0 mm - 6 W/m² -
1788268952 16.11° C 31% 1021.9 hPa 0 mm - 3 W/m² -
1788268645 16.11° C 31% 1021.5 hPa 0 mm - 1 W/m² -
1788268344 16.11° C 30% 1021.6 hPa 0 mm - 0 W/m² -
1788268040 16.11° C 30% 1021.5 hPa 0 mm - 0 W/m² -
1788267739 16.11° C 30% 1021.4 hPa 0 mm - 0 W/m² -
1788267436 16.67° C 30% 1021.5 hPa 0 mm - 0 W/m² -

* Rain latest hour (hover to see other rain measurements)
** Current wind speed in m/s (hover to see current wind gust speed)